Thursday, November 23, 2017, 7:22 PM EST
Back to Local

KJGG, Williamsburg, Williamsburg-jamestown Airport

Location: Williamsburg, VA, United States Lat: 37.239
Local Time: 7:22 PM EST ( 0:22 GMT) Lon: -76.716
Time Zone: US/Eastern Elev: 49 ft

Show me the last for .
Show Coded

Time T Td Feel RH Dir Speed Gust Alt SLP Vis Weather Sky Remarks
2017-11-23 18:55 37 30 - 74 - Calm - 30.10 - 10 CLR None
2017-11-23 18:35 37 30 - 74 - Calm - 30.10 - 10 CLR None
2017-11-23 18:15 37 30 - 74 - Calm - 30.09 - 10 CLR None
2017-11-23 17:55 39 30 - 69 - Calm - 30.09 - 10 CLR None
2017-11-23 17:35 39 30 - 69 - Calm - 30.09 - 10 CLR None
2017-11-23 17:15 41 30 - 65 - Calm - 30.09 - 10 CLR None
2017-11-23 16:55 41 30 - 65 - Calm - 30.09 - 10 CLR None
2017-11-23 16:35 43 30 - 60 - Calm - 30.10 - 10 CLR None
2017-11-23 16:15 45 28 - 52 - Calm - 30.09 - 10 CLR None
2017-11-23 15:55 46 28 - 49 - Calm - 30.10 - 10 CLR None
2017-11-23 15:35 46 28 - 49 - Calm - 30.09 - 10 CLR None
2017-11-23 15:15 46 28 - 49 - Calm - 30.10 - 10 CLR None
2017-11-23 14:55 46 27 - 45 - Calm - 30.09 - 10 CLR None
2017-11-23 14:35 46 28 - 49 - Calm - 30.10 - 10 CLR None
2017-11-23 14:15 48 28 - 45 - Calm - 30.10 - 10 CLR None
2017-11-23 13:55 46 28 - 49 - Calm - 30.12 - 10 CLR None
2017-11-23 13:35 48 28 - 45 - Calm - 30.12 - 10 CLR None
2017-11-23 13:15 46 27 - 45 - Calm - 30.13 - 10 CLR None
2017-11-23 12:55 46 27 - 45 - Calm - 30.13 - 10 CLR None
2017-11-23 12:35 45 27 - 48 - Calm - 30.14 - 10 CLR None
2017-11-23 12:15 46 27 - 45 - Calm - 30.15 - 10 CLR None
2017-11-23 11:55 46 27 - 45 - Calm - 30.17 - 10 CLR None
2017-11-23 11:35 46 27 - 45 - Calm - 30.18 - 10 CLR None
2017-11-23 11:15 46 27 - 45 - Calm - 30.18 - 10 CLR None
2017-11-23 10:55 45 27 - 48 - Calm - 30.18 - 10 CLR None
2017-11-23 10:35 45 27 - 48 - Calm - 30.19 - 10 CLR None
2017-11-23 10:15 45 27 - 48 - Calm - 30.19 - 10 CLR None
2017-11-23 09:55 45 27 42 48 10° 5 - 30.21 - 10 CLR None
2017-11-23 09:35 43 27 - 52 - Calm - 30.21 - 10 CLR None
2017-11-23 09:15 43 28 - 56 - Calm - 30.20 - 10 CLR None
2017-11-23 08:55 39 28 - 64 - Calm - 30.21 - 10 CLR None
2017-11-23 08:35 37 28 - 69 - Calm - 30.20 - 10 CLR None
2017-11-23 08:10 36 28 - 74 - Calm - 30.20 - 10 CLR None
2017-11-23 07:55 36 28 - 74 - Calm - 30.20 - 10 CLR None
2017-11-23 07:35 34 28 - 80 - Calm - 30.20 - 10 CLR None
2017-11-23 07:15 34 28 - 80 - Calm - 30.19 - 10 CLR None
2017-11-23 06:55 34 28 - 80 - Calm - 30.18 - 10 CLR None
2017-11-23 06:35 34 28 - 80 - Calm - 30.18 - 10 CLR None
2017-11-23 06:15 34 28 - 80 - Calm - 30.18 - 10 CLR None
2017-11-23 05:55 34 28 - 80 - Calm - 30.17 - 10 CLR None
2017-11-23 05:35 34 28 - 80 - Calm - 30.17 - 10 CLR None
2017-11-23 05:15 34 27 - 74 - Calm - 30.17 - 10 CLR None
2017-11-23 04:55 36 28 - 74 - Calm - 30.17 - 10 CLR None
2017-11-23 04:35 36 27 - 69 - Calm - 30.17 - 10 CLR None
2017-11-23 04:15 36 27 - 69 - Calm - 30.17 - 10 CLR None
2017-11-23 03:55 36 27 - 69 - Calm - 30.17 - 10 CLR None
2017-11-23 03:35 36 27 - 69 - Calm - 30.17 - 10 CLR None
2017-11-23 03:15 36 27 - 69 - Calm - 30.17 - 10 CLR None
2017-11-23 02:55 37 27 35 64 350° 3 - 30.18 - 10 CLR None
2017-11-23 02:35 37 27 - 64 - Calm - 30.18 - 10 CLR None
2017-11-23 02:15 37 27 - 64 - Calm - 30.18 - 10 CLR None
2017-11-23 01:55 37 28 - 69 - Calm - 30.18 - 10 CLR None
2017-11-23 01:35 39 28 - 64 - Calm - 30.18 - 10 CLR None
2017-11-23 01:15 39 28 36 64 350° 5 - 30.18 - 10 CLR None
2017-11-23 00:55 39 28 36 64 350° 5 - 30.18 - 10 CLR None
2017-11-23 00:35 39 28 36 64 340° 5 - 30.18 - 10 CLR None
2017-11-23 00:15 41 28 37 60 340° 6 - 30.19 - 10 CLR None
2017-11-22 23:55 41 28 38 60 350° 5 - 30.19 - 10 CLR None
2017-11-22 23:35 43 28 39 56 340° 6 - 30.19 - 10 CLR None
2017-11-22 23:15 43 28 39 56 360° 6 - 30.19 - 10 CLR None
2017-11-22 22:55 43 30 39 60 10° 7 - 30.19 - 10 CLR None
2017-11-22 22:35 43 30 - 60 - Calm - 30.18 - 10 CLR None
2017-11-22 22:15 43 32 41 65 340° 3 - 30.17 - 10 CLR None
2017-11-22 21:55 45 30 42 56 360° 5 - 30.17 - 10 CLR None
2017-11-22 21:35 45 32 40 61 10° 9 - 30.16 - 10 CLR None
2017-11-22 21:15 45 32 41 61 350° 7 - 30.15 - 10 CLR None
2017-11-22 20:55 45 30 - 56 - Calm - 30.15 - 10 CLR None
2017-11-22 20:35 46 32 42 56 360° 8 - 30.14 - 10 CLR None
2017-11-22 20:15 46 32 42 56 350° 8 - 30.13 - 10 CLR None
2017-11-22 19:55 46 34 45 61 360° 3 - 30.12 - 10 CLR None
2017-11-22 19:35 46 34 44 61 350° 6 - 30.12 - 10 CLR None

Support USWX by starting your Amazon purchase here.